Time;durP1;ratioP1;P1;durP2;ratioP2;P2;SDS_P1;SDS_P2;PMS_P1;PMS_P2;Temp;Humidity;BMP_temperature;BMP_pressure;BME280_temperature;BME280_humidity;BME280_pressure;Samples;Min_cycle;Max_cycle;Signal;HPM_P1;HPM_P2
2022/01/23 00:00:19;;;;;;;39.65;16.02;;;;;;;13.65;48.52;103304.13;5062545;28;21143;-63
2022/01/23 00:02:49;;;;;;;36.63;14.80;;;;;;;13.76;48.07;103323.22;5060087;28;20032;-63
2022/01/23 00:05:16;;;;;;;35.90;16.13;;;;;;;13.75;48.10;103310.69;5030537;28;20128;-63
2022/01/23 00:07:43;;;;;;;34.83;15.15;;;;;;;13.71;48.94;103315.38;5061497;28;20501;-63
2022/01/23 00:10:10;;;;;;;34.83;14.90;;;;;;;13.75;49.03;103329.56;5044057;28;20082;-63
2022/01/23 00:12:44;;;;;;;32.55;14.48;;;;;;;13.71;48.68;103309.13;5052949;28;20020;-63
2022/01/23 00:17:54;;;;;;;36.30;15.82;;;;;;;13.73;48.83;103328.78;5038400;28;20090;-63
2022/01/23 00:20:19;;;;;;;33.17;13.23;;;;;;;13.70;48.89;103316.34;5053644;28;20029;-63
2022/01/23 00:22:49;;;;;;;28.63;13.52;;;;;;;13.71;48.19;103319.91;5053454;28;20057;-63
2022/01/23 00:30:46;;;;;;;29.42;14.80;;;;;;;13.68;47.47;103303.94;5053327;28;20498;-63
2022/01/23 00:33:12;;;;;;;31.33;14.50;;;;;;;13.73;49.22;103312.63;5035716;28;20025;-63
2022/01/23 00:35:39;;;;;;;34.03;14.90;;;;;;;13.73;48.99;103308.09;5053228;28;20108;-63
2022/01/23 00:38:08;;;;;;;31.77;12.90;;;;;;;13.75;48.58;103308.00;5053296;28;20035;-63
2022/01/23 00:40:35;;;;;;;29.30;13.15;;;;;;;13.74;49.09;103308.94;5053442;28;20064;-63
2022/01/23 00:43:01;;;;;;;32.63;13.63;;;;;;;13.68;48.76;103304.78;5053329;28;20025;-63
2022/01/23 00:45:41;;;;;;;31.80;14.77;;;;;;;13.72;47.64;103317.13;5019484;28;20021;-63
2022/01/23 00:48:08;;;;;;;29.73;12.57;;;;;;;13.73;48.92;103315.31;5053317;28;20017;-63
2022/01/23 00:50:53;;;;;;;36.85;14.35;;;;;;;13.73;48.97;103307.22;5019255;28;20079;-62
2022/01/23 00:53:18;;;;;;;31.08;14.18;;;;;;;13.70;49.21;103304.72;5053279;28;20033;-63
2022/01/23 00:55:47;;;;;;;29.23;13.20;;;;;;;13.64;48.77;103296.97;5035835;28;20471;-63
2022/01/23 00:58:14;;;;;;;27.52;13.48;;;;;;;13.75;47.69;103310.69;5053277;28;20109;-63
2022/01/23 01:00:40;;;;;;;33.45;13.88;;;;;;;13.74;48.64;103317.03;5035532;28;20531;-63
2022/01/23 01:03:06;;;;;;;36.40;13.55;;;;;;;13.74;48.83;103315.22;5052946;28;20482;-63
2022/01/23 01:05:32;;;;;;;29.42;13.00;;;;;;;13.74;48.25;103314.34;5035402;28;20032;-63
2022/01/23 01:07:59;;;;;;;34.33;13.63;;;;;;;13.74;47.58;103314.34;5035170;28;20044;-63
2022/01/23 01:10:33;;;;;;;38.05;14.75;;;;;;;13.74;48.44;103308.94;5035397;28;20017;-63
2022/01/23 01:13:01;;;;;;;32.40;12.80;;;;;;;13.73;48.17;103313.50;5052936;28;20067;-63
2022/01/23 01:15:34;;;;;;;37.80;14.40;;;;;;;13.72;47.84;103306.34;5052937;28;20478;-63
2022/01/23 01:32:16;;;;;;;34.65;14.55;;;;;;;13.70;48.35;103296.63;4952940;29;20032;-63
2022/01/23 01:34:49;;;;;;;35.22;13.75;;;;;;;13.70;49.18;103285.84;5001955;28;20034;-63
2022/01/23 01:37:15;;;;;;;26.08;12.95;;;;;;;13.70;47.62;103283.16;5013169;28;20037;-63
2022/01/23 01:39:40;;;;;;;29.90;13.48;;;;;;;13.67;48.77;103275.25;5013004;28;20073;-63
2022/01/23 01:42:06;;;;;;;33.88;15.13;;;;;;;13.70;47.77;103285.84;5013095;28;20487;-63
2022/01/23 01:44:32;;;;;;;33.85;14.23;;;;;;;13.69;47.59;103286.81;5013339;28;20259;-63
2022/01/23 01:46:57;;;;;;;28.13;13.27;;;;;;;13.67;48.39;103275.25;5016692;28;20030;-63
2022/01/23 01:49:33;;;;;;;40.40;13.75;;;;;;;13.66;48.35;103287.84;5015426;28;20113;-63
2022/01/23 01:52:00;;;;;;;37.17;14.40;;;;;;;13.67;49.11;103291.41;5000623;28;20442;-63
2022/01/23 01:54:28;;;;;;;34.67;13.73;;;;;;;13.65;48.11;103286.09;5015258;28;20084;-63
2022/01/23 01:57:05;;;;;;;30.80;14.30;;;;;;;13.69;48.70;103301.16;5016518;28;20376;-63
2022/01/23 02:08:49;;;;;;;31.70;14.32;;;;;;;13.67;48.21;103310.28;5015271;28;20168;-63
2022/01/23 02:10:46;;;;;;;28.80;13.32;;;;;;;13.66;48.55;103316.59;5002920;28;20026;-63
2022/01/23 02:13:15;;;;;;;32.03;14.45;;;;;;;13.61;48.71;103298.03;5016087;28;20104;-63
2022/01/23 02:56:49;;;;;;;34.72;15.10;;;;;;;13.59;47.82;103254.16;5054765;28;20053;-63
2022/01/23 02:59:36;;;;;;;36.35;14.98;;;;;;;13.59;48.67;103256.84;5021524;28;20029;-63
2022/01/23 03:04:49;;;;;;;31.83;14.15;;;;;;;13.56;48.13;103275.00;5039857;28;20513;-63
2022/01/23 03:07:31;;;;;;;35.13;14.20;;;;;;;13.54;48.33;103266.16;5054875;28;20151;-63
2022/01/23 03:10:43;;;;;;;37.20;15.10;;;;;;;13.54;47.80;103277.78;5022799;28;20028;-63
2022/01/23 03:15:59;;;;;;;35.95;14.38;;;;;;;13.55;48.98;103275.97;5038926;28;20033;-63
2022/01/23 03:34:18;;;;;;;35.78;13.88;;;;;;;13.55;49.24;103271.44;5054170;28;20387;-63
2022/01/23 03:36:44;;;;;;;30.90;13.60;;;;;;;13.52;48.32;103259.97;5036733;28;20485;-63
2022/01/23 03:39:10;;;;;;;35.70;13.95;;;;;;;13.55;48.00;103262.50;5053975;28;20154;-63
2022/01/23 03:41:37;;;;;;;35.95;13.55;;;;;;;13.54;49.37;103260.78;5019695;28;20025;-62
2022/01/23 03:44:05;;;;;;;30.63;12.70;;;;;;;13.54;49.00;103268.84;5054061;28;20390;-63
2022/01/23 03:47:20;;;;;;;31.85;13.75;;;;;;;13.51;48.25;103253.75;5054076;28;20055;-63
2022/01/23 03:49:32;;;;;;;42.15;14.45;;;;;;;13.49;49.04;103261.03;5048345;28;20041;-63
2022/01/23 03:52:07;;;;;;;37.10;13.88;;;;;;;13.48;49.10;103262.00;5035781;28;20118;-63
2022/01/23 03:54:33;;;;;;;39.45;14.57;;;;;;;13.43;48.22;103247.06;5053686;28;20025;-62
2022/01/23 03:57:00;;;;;;;36.00;14.00;;;;;;;13.47;48.15;103257.56;5053921;28;20398;-63
2022/01/23 04:02:10;;;;;;;35.45;13.43;;;;;;;13.43;48.21;103264.94;5053630;28;20083;-63
2022/01/23 04:04:42;;;;;;;35.58;15.13;;;;;;;13.45;48.90;103281.03;5035975;28;20036;-63
2022/01/23 04:07:22;;;;;;;35.92;15.80;;;;;;;13.47;49.21;103283.59;5035344;28;20475;-63
2022/01/23 04:09:48;;;;;;;35.45;14.07;;;;;;;13.46;49.28;103281.84;5036382;28;20024;-63
2022/01/23 04:12:28;;;;;;;34.22;14.90;;;;;;;13.45;48.77;103282.84;5036017;28;20521;-63
2022/01/23 04:15:11;;;;;;;42.17;14.45;;;;;;;13.45;49.03;103269.38;5038200;28;20387;-63
2022/01/23 04:20:31;;;;;;;31.25;13.77;;;;;;;13.44;49.04;103268.50;5053803;28;20415;-63
2022/01/23 04:33:59;;;;;;;35.22;13.68;;;;;;;13.43;48.93;103277.53;5053638;28;20082;-63
2022/01/23 05:01:00;;;;;;;36.65;15.30;;;;;;;13.46;48.02;103298.00;5053273;28;20052;-63
2022/01/23 05:06:06;;;;;;;34.15;13.90;;;;;;;13.45;48.12;103297.19;5053329;28;19909;-63
2022/01/23 05:08:34;;;;;;;38.78;14.18;;;;;;;13.43;48.22;103290.97;5053279;28;20032;-63
2022/01/23 05:11:01;;;;;;;46.15;16.40;;;;;;;13.45;49.02;103291.78;5053150;28;20036;-63
2022/01/23 05:13:27;;;;;;;35.13;14.68;;;;;;;13.47;48.60;103300.63;5053207;28;20107;-63
2022/01/23 05:15:53;;;;;;;35.88;15.10;;;;;;;13.43;48.92;103297.25;5035488;28;20040;-63
2022/01/23 05:18:18;;;;;;;33.88;13.20;;;;;;;13.43;48.03;103293.69;5035256;28;20025;-63
2022/01/23 05:20:45;;;;;;;32.85;15.32;;;;;;;13.42;47.96;103297.34;5056485;28;20028;-63
2022/01/23 05:23:11;;;;;;;35.28;14.55;;;;;;;13.40;48.00;103289.34;5056573;28;20037;-63
2022/01/23 05:25:37;;;;;;;37.72;15.73;;;;;;;13.43;48.78;103294.56;5056308;28;20061;-62
2022/01/23 05:28:03;;;;;;;36.35;14.55;;;;;;;13.43;47.93;103294.56;5056924;28;20394;-63
2022/01/23 05:30:29;;;;;;;35.53;15.50;;;;;;;13.39;48.04;103287.63;5056534;28;20032;-63
2022/01/23 05:32:57;;;;;;;41.13;16.20;;;;;;;13.38;48.48;103285.00;5056464;28;20398;-63
2022/01/23 05:35:24;;;;;;;34.33;14.82;;;;;;;13.40;49.02;103283.94;5056348;28;20032;-63
2022/01/23 05:37:49;;;;;;;35.25;14.98;;;;;;;13.41;48.32;103280.31;5056380;28;20028;-63
2022/01/23 05:40:17;;;;;;;42.05;15.68;;;;;;;13.37;47.82;103273.34;5056531;28;20021;-63
2022/01/23 05:42:42;;;;;;;35.33;15.20;;;;;;;13.34;48.64;103284.28;5056132;28;20043;-63
2022/01/23 05:45:08;;;;;;;36.88;14.95;;;;;;;13.34;48.93;103281.59;5038489;28;20029;-63
2022/01/23 05:47:34;;;;;;;37.75;15.65;;;;;;;13.31;48.69;103284.50;5056342;28;20039;-63
2022/01/23 05:49:59;;;;;;;40.30;15.10;;;;;;;13.31;48.24;103284.50;5022052;28;20028;-63
2022/01/23 05:52:25;;;;;;;38.90;16.20;;;;;;;13.30;49.02;103293.53;5056264;28;20031;-63
2022/01/23 05:54:50;;;;;;;40.20;16.90;;;;;;;13.31;48.79;103292.56;5056139;28;20033;-63
2022/01/23 05:57:16;;;;;;;39.95;14.88;;;;;;;13.31;48.04;103291.69;5056107;28;20402;-63
2022/01/23 05:59:41;;;;;;;37.95;15.40;;;;;;;13.33;48.07;103295.16;5056059;28;20036;-63
2022/01/23 06:02:07;;;;;;;39.55;14.82;;;;;;;13.34;48.68;103297.75;5055936;28;20082;-63
2022/01/23 06:04:33;;;;;;;36.55;15.32;;;;;;;13.35;49.11;103291.44;5055831;28;20033;-63
2022/01/23 06:06:59;;;;;;;38.13;15.85;;;;;;;13.36;49.60;103286.91;5038284;28;20033;-63
2022/01/23 06:09:25;;;;;;;49.58;16.77;;;;;;;13.35;49.55;103286.03;5055980;28;20040;-63
2022/01/23 06:11:51;;;;;;;33.53;13.82;;;;;;;13.36;48.24;103293.19;5055858;28;20104;-63
2022/01/23 06:14:17;;;;;;;30.67;12.90;;;;;;;13.35;48.11;103298.63;5055964;28;20108;-63
2022/01/23 06:16:42;;;;;;;34.80;13.95;;;;;;;13.36;49.06;103295.88;5021659;28;20036;-62
2022/01/23 06:19:08;;;;;;;36.35;15.60;;;;;;;13.35;48.64;103296.81;5055738;28;20425;-62
2022/01/23 06:21:33;;;;;;;38.58;14.68;;;;;;;13.35;48.17;103307.56;5055915;28;20398;-62
2022/01/23 06:26:41;;;;;;;37.00;14.07;;;;;;;13.33;48.47;103309.50;5055122;28;20526;-63
2022/01/23 06:29:06;;;;;;;35.65;14.20;;;;;;;13.32;48.95;103313.13;5055500;28;20116;-63
2022/01/23 06:31:32;;;;;;;36.60;14.57;;;;;;;13.19;49.18;103284.31;5054875;28;20451;-63
2022/01/23 06:33:58;;;;;;;32.22;14.10;;;;;;;13.27;48.00;103309.84;5038100;28;20067;-62
2022/01/23 06:36:24;;;;;;;31.23;13.50;;;;;;;13.24;49.02;103315.38;5037607;28;20060;-63
2022/01/23 06:38:49;;;;;;;32.65;14.23;;;;;;;13.26;48.30;103321.53;5055338;28;20467;-63
2022/01/23 06:41:15;;;;;;;36.05;14.02;;;;;;;13.22;48.09;103314.63;5055233;28;20029;-63
2022/01/23 06:43:40;;;;;;;32.13;14.88;;;;;;;13.25;48.28;103319.84;5055216;28;20078;-63
2022/01/23 06:46:05;;;;;;;34.70;13.93;;;;;;;13.25;49.14;103322.53;5055171;28;20099;-63
2022/01/23 06:48:31;;;;;;;41.70;15.52;;;;;;;13.23;49.31;103324.41;5055035;28;20060;-63
2022/01/23 06:50:56;;;;;;;32.17;13.60;;;;;;;13.22;48.57;103322.69;5055245;28;20036;-63
2022/01/23 06:53:21;;;;;;;33.10;14.48;;;;;;;13.25;48.50;103325.22;5037270;28;20448;-63
2022/01/23 06:55:47;;;;;;;36.15;15.82;;;;;;;13.20;48.43;103307.59;5055171;28;20025;-63
2022/01/23 06:58:12;;;;;;;36.53;14.40;;;;;;;13.26;49.36;103318.00;5054927;28;20060;-63
2022/01/23 07:00:37;;;;;;;32.47;14.43;;;;;;;13.24;48.26;103315.38;5054827;28;20028;-63
2022/01/23 07:03:03;;;;;;;38.45;15.32;;;;;;;13.24;48.54;103327.97;5054908;28;20056;-62
2022/01/23 07:05:28;;;;;;;37.92;15.93;;;;;;;13.23;49.23;103324.41;5054875;28;20024;-63
2022/01/23 07:07:54;;;;;;;31.45;14.32;;;;;;;13.22;49.32;103328.06;5054732;28;20029;-63
2022/01/23 07:10:21;;;;;;;35.55;14.18;;;;;;;13.24;48.83;103342.31;5054696;28;20449;-63
2022/01/23 07:12:46;;;;;;;38.92;13.68;;;;;;;13.22;49.22;103333.44;5037041;28;20036;-63
2022/01/23 07:15:12;;;;;;;36.88;14.30;;;;;;;13.22;49.27;103328.06;5054772;28;20032;-63
2022/01/23 07:17:41;;;;;;;36.15;14.93;;;;;;;13.15;48.75;103315.88;5036759;28;20032;-63
2022/01/23 07:20:07;;;;;;;37.60;13.38;;;;;;;13.25;48.74;103349.44;5054773;28;20028;-63
2022/01/23 07:22:33;;;;;;;32.88;13.95;;;;;;;13.24;49.02;103347.69;5054605;28;20029;-63
2022/01/23 07:25:02;;;;;;;31.77;14.30;;;;;;;13.22;48.28;103352.28;5054256;28;20060;-62
2022/01/23 07:27:33;;;;;;;36.33;14.93;;;;;;;13.23;48.81;103354.00;5054304;28;20029;-63
2022/01/23 07:29:58;;;;;;;36.80;14.23;;;;;;;13.22;49.17;103354.97;5054388;28;20033;-63
2022/01/23 07:32:23;;;;;;;32.15;14.02;;;;;;;13.20;48.33;103351.53;5054470;28;20128;-63
2022/01/23 07:34:49;;;;;;;39.08;14.18;;;;;;;13.20;48.45;103356.91;5054177;28;20032;-63
2022/01/23 07:37:15;;;;;;;36.47;15.68;;;;;;;13.19;49.53;103355.16;5054275;28;20028;-63
2022/01/23 07:39:40;;;;;;;35.17;14.93;;;;;;;13.20;49.63;103356.03;5036286;28;20055;-63
2022/01/23 07:42:06;;;;;;;36.45;14.55;;;;;;;13.21;49.02;103360.44;5053323;28;20433;-63
2022/01/23 07:44:32;;;;;;;32.03;13.88;;;;;;;13.19;49.51;103360.53;5054142;28;20028;-63
2022/01/23 07:46:57;;;;;;;38.67;14.48;;;;;;;13.22;48.98;103370.25;5054150;28;20055;-63
2022/01/23 07:49:23;;;;;;;39.30;14.10;;;;;;;13.23;48.55;103361.25;5036180;28;20031;-63
2022/01/23 07:51:49;;;;;;;34.72;13.52;;;;;;;13.23;48.89;103361.25;5036373;28;20134;-63
2022/01/23 07:54:14;;;;;;;38.15;14.40;;;;;;;13.22;48.76;103363.06;5054109;28;20098;-63
2022/01/23 07:56:42;;;;;;;38.28;14.75;;;;;;;13.20;48.62;103362.28;5053907;28;20104;-63
2022/01/23 07:59:08;;;;;;;32.92;13.32;;;;;;;13.20;49.13;103362.28;5053894;28;20111;-63
2022/01/23 08:01:36;;;;;;;33.60;14.73;;;;;;;13.23;48.18;103370.16;5053423;28;20116;-63
2022/01/23 08:04:01;;;;;;;38.28;15.38;;;;;;;13.24;48.95;103374.59;5035868;28;20091;-63
2022/01/23 08:06:32;;;;;;;39.97;15.25;;;;;;;13.25;49.22;103375.47;5053555;28;20054;-63
2022/01/23 08:08:57;;;;;;;31.60;14.85;;;;;;;13.29;49.50;103380.59;5053868;28;20025;-63
2022/01/23 08:11:22;;;;;;;33.63;14.77;;;;;;;13.26;49.08;103378.06;5053577;28;20028;-63
2022/01/23 08:13:47;;;;;;;36.17;14.50;;;;;;;13.27;48.23;103379.81;5035823;28;20037;-63
2022/01/23 08:16:13;;;;;;;41.47;15.48;;;;;;;13.27;48.84;103379.81;5053605;28;20056;-63
2022/01/23 08:18:38;;;;;;;37.10;14.75;;;;;;;13.27;48.99;103387.91;5053877;28;20371;-63
2022/01/23 08:21:04;;;;;;;38.53;16.08;;;;;;;13.28;49.48;103386.94;5053198;28;20506;-63
2022/01/23 08:23:29;;;;;;;44.22;15.77;;;;;;;13.29;49.25;103387.78;5053580;28;20036;-63
2022/01/23 08:25:55;;;;;;;33.22;15.43;;;;;;;13.31;49.40;103389.47;5053527;28;20522;-63
2022/01/23 08:28:20;;;;;;;37.53;14.15;;;;;;;13.34;48.35;103391.97;5035544;28;20025;-63
2022/01/23 08:30:46;;;;;;;37.05;15.70;;;;;;;13.36;49.33;103392.78;5053168;28;20028;-63
2022/01/23 08:33:11;;;;;;;36.67;14.15;;;;;;;13.38;49.53;103396.25;5053245;28;20067;-63
2022/01/23 08:35:36;;;;;;;37.20;14.80;;;;;;;13.36;49.29;103395.47;5035712;28;20027;-63
2022/01/23 08:38:03;;;;;;;36.45;15.25;;;;;;;13.36;48.84;103390.09;5053454;28;20475;-63
2022/01/23 08:40:47;;;;;;;29.67;14.75;;;;;;;13.36;49.20;103389.22;5053186;28;20474;-63
2022/01/23 08:43:15;;;;;;;34.85;14.77;;;;;;;13.32;48.92;103385.81;5053285;28;20053;-63
2022/01/23 08:45:41;;;;;;;36.08;12.85;;;;;;;13.34;49.10;103397.34;5053383;28;20511;-63
2022/01/23 08:48:07;;;;;;;35.47;15.27;;;;;;;13.39;47.92;103398.00;5035467;28;20040;-62
2022/01/23 08:50:33;;;;;;;31.88;14.25;;;;;;;13.40;49.38;103397.03;5053194;28;20029;-63
2022/01/23 08:52:58;;;;;;;39.22;14.45;;;;;;;13.42;48.50;103405.03;5035790;28;20035;-63
2022/01/23 08:55:23;;;;;;;34.35;14.43;;;;;;;13.43;49.56;103406.75;5039283;28;20037;-63
2022/01/23 08:57:49;;;;;;;32.95;13.85;;;;;;;13.43;48.29;103405.91;5039300;28;20028;-63
2022/01/23 09:00:15;;;;;;;32.35;14.00;;;;;;;13.46;49.51;103409.28;5057275;28;20025;-62
2022/01/23 09:02:41;;;;;;;33.05;13.40;;;;;;;13.47;49.44;103402.09;5057207;28;20168;-62
2022/01/23 09:05:07;;;;;;;34.70;14.93;;;;;;;13.48;48.96;103403.84;5056893;28;20044;-62
2022/01/23 09:07:32;;;;;;;35.58;16.00;;;;;;;13.49;48.30;103406.44;5057066;28;20417;-63
2022/01/23 09:10:03;;;;;;;43.22;16.45;;;;;;;13.49;49.04;103401.03;5056952;28;20068;-63
2022/01/23 09:15:04;;;;;;;34.42;14.43;;;;;;;13.57;48.44;103404.16;5057286;28;20036;-63
2022/01/23 09:17:30;;;;;;;36.13;14.13;;;;;;;13.57;48.44;103404.16;5057192;28;20393;-62
2022/01/23 09:19:55;;;;;;;37.63;15.15;;;;;;;13.56;48.15;103388.13;5038934;28;20115;-63
2022/01/23 09:22:20;;;;;;;37.78;14.30;;;;;;;13.60;48.65;103398.63;5039216;28;20091;-63
2022/01/23 09:24:46;;;;;;;32.97;13.63;;;;;;;13.62;48.08;103390.47;5038837;28;21205;-63
2022/01/23 09:27:18;;;;;;;36.58;14.98;;;;;;;13.61;48.13;103384.22;5039075;28;20060;-63
2022/01/23 09:29:47;;;;;;;35.35;14.57;;;;;;;13.67;48.50;103401.84;5056886;28;20421;-63
2022/01/23 09:32:14;;;;;;;36.60;14.77;;;;;;;13.61;48.25;103394.97;5056722;28;20021;-63
2022/01/23 09:34:42;;;;;;;33.67;14.10;;;;;;;13.66;49.22;103398.28;5038760;28;20024;-63
2022/01/23 09:37:10;;;;;;;38.67;16.05;;;;;;;13.65;48.38;103401.91;5038673;28;20082;-63
2022/01/23 09:39:36;;;;;;;30.85;13.38;;;;;;;13.68;48.08;103400.91;5038417;28;20170;-63
2022/01/23 09:42:21;;;;;;;35.90;14.68;;;;;;;13.69;49.56;103416.97;5038838;28;20108;-63
2022/01/23 09:44:51;;;;;;;35.38;15.10;;;;;;;13.72;47.91;103408.72;5038317;28;20024;-63
2022/01/23 09:47:17;;;;;;;40.05;15.48;;;;;;;13.76;48.20;103409.41;5038878;28;20028;-63
2022/01/23 09:49:43;;;;;;;43.58;16.05;;;;;;;13.78;48.70;103410.19;5056188;28;20021;-63
2022/01/23 09:52:11;;;;;;;35.80;14.70;;;;;;;13.81;49.16;103418.09;5038386;28;20079;-63
2022/01/23 09:54:39;;;;;;;36.55;14.40;;;;;;;13.83;49.23;103418.88;5056020;28;20025;-63
2022/01/23 09:57:06;;;;;;;35.65;15.55;;;;;;;13.83;48.36;103421.56;5021749;28;20475;-63
2022/01/23 09:59:31;;;;;;;38.63;15.32;;;;;;;13.83;47.75;103422.44;5056167;28;20021;-63
2022/01/23 10:01:57;;;;;;;41.33;15.70;;;;;;;13.85;48.14;103414.25;5056188;28;20383;-63
2022/01/23 10:04:26;;;;;;;38.60;14.60;;;;;;;13.90;48.83;103414.91;5038051;28;20029;-63
2022/01/23 10:06:53;;;;;;;34.20;13.57;;;;;;;13.91;48.90;103408.53;5055623;28;20025;-63
2022/01/23 10:09:20;;;;;;;38.83;15.35;;;;;;;13.94;47.77;103413.75;5038408;28;20111;-63
2022/01/23 10:11:46;;;;;;;36.22;16.23;;;;;;;13.92;47.86;103408.47;5038013;28;20021;-63
2022/01/23 10:14:12;;;;;;;34.13;14.35;;;;;;;13.95;48.78;103402.03;5037948;28;20170;-63
2022/01/23 10:16:37;;;;;;;35.80;15.15;;;;;;;13.96;48.02;103403.75;5055706;28;20029;-63
2022/01/23 10:19:04;;;;;;;32.58;13.77;;;;;;;13.97;48.33;103400.97;5055707;28;20028;-63
2022/01/23 10:21:31;;;;;;;40.00;15.73;;;;;;;14.01;48.47;103416.00;5055613;28;20049;-62
2022/01/23 10:23:57;;;;;;;32.88;14.10;;;;;;;14.06;49.08;103414.88;5037841;28;20044;-62
2022/01/23 10:26:53;;;;;;;35.90;15.13;;;;;;;14.08;48.17;103407.56;5055314;28;20049;-63
2022/01/23 10:29:26;;;;;;;33.65;15.20;;;;;;;14.10;48.38;103401.13;5037851;28;20029;-63
2022/01/23 10:32:21;;;;;;;34.40;14.85;;;;;;;14.14;48.64;103410.78;5055259;28;20056;-63
2022/01/23 10:35:00;;;;;;;37.92;15.40;;;;;;;14.14;47.88;103393.75;5055336;28;20028;-63
2022/01/23 10:37:37;;;;;;;31.33;13.73;;;;;;;14.22;49.25;103408.50;5055417;28;20021;-63
2022/01/23 10:40:24;;;;;;;33.80;14.65;;;;;;;14.21;47.91;103408.63;5037831;28;20016;-63
2022/01/23 10:48:35;;;;;;;41.60;16.48;;;;;;;14.28;49.16;103399.19;5055027;28;20055;-63
2022/01/23 10:51:16;;;;;;;41.72;16.23;;;;;;;14.27;47.36;103394.75;5037085;28;20086;-63
2022/01/23 10:53:58;;;;;;;40.95;15.55;;;;;;;14.30;47.49;103399.97;5055258;28;20398;-63
2022/01/23 10:56:25;;;;;;;38.13;15.48;;;;;;;14.27;47.89;103386.66;5054940;28;20039;-63
2022/01/23 10:59:03;;;;;;;35.05;15.35;;;;;;;14.27;47.79;103390.22;5037162;28;20074;-63
2022/01/23 11:01:29;;;;;;;37.75;15.50;;;;;;;14.33;48.57;103402.50;5054841;28;20105;-63
2022/01/23 11:04:04;;;;;;;32.60;14.35;;;;;;;14.29;48.93;103393.69;5054985;28;20021;-63
2022/01/23 11:06:30;;;;;;;36.67;16.10;;;;;;;14.27;48.86;103394.75;5054952;28;20382;-63
2022/01/23 11:09:09;;;;;;;31.67;14.48;;;;;;;14.23;48.50;103388.69;5036829;28;20041;-63
2022/01/23 11:11:47;;;;;;;34.17;13.82;;;;;;;14.19;47.47;103387.13;5036914;28;20028;-63
2022/01/23 11:19:47;;;;;;;32.45;14.43;;;;;;;14.30;48.22;103394.56;5039375;28;20488;-63
2022/01/23 11:22:18;;;;;;;38.97;14.85;;;;;;;14.31;47.67;103391.81;5054300;28;20072;-63
2022/01/23 11:24:47;;;;;;;38.47;14.32;;;;;;;14.37;47.59;103396.00;5054105;28;20024;-63
2022/01/23 11:27:15;;;;;;;39.90;15.07;;;;;;;14.41;48.05;103387.63;5054757;28;20032;-63
2022/01/23 11:29:54;;;;;;;33.58;14.75;;;;;;;14.41;47.64;103384.94;5036860;28;20023;-63
2022/01/23 11:32:20;;;;;;;37.47;14.43;;;;;;;14.39;47.78;103383.28;5036633;28;20052;-63
2022/01/23 11:34:46;;;;;;;38.17;15.73;;;;;;;14.41;48.99;103382.22;5020176;28;20427;-63
2022/01/23 11:37:13;;;;;;;34.08;14.25;;;;;;;14.39;47.58;103378.75;5036375;28;20180;-63
2022/01/23 11:39:49;;;;;;;35.80;15.57;;;;;;;14.33;48.38;103379.13;5054161;28;20501;-63
2022/01/23 11:56:24;;;;;;;31.38;12.63;;;;;;;14.45;47.77;103375.72;5053841;28;20071;-63
2022/01/23 11:59:19;;;;;;;31.50;13.77;;;;;;;14.47;47.76;103371.06;5053673;28;20112;-63
2022/01/23 12:01:47;;;;;;;29.65;12.85;;;;;;;14.45;47.17;103367.63;5053678;28;20544;-63
2022/01/23 12:04:24;;;;;;;28.60;13.30;;;;;;;14.46;48.85;103369.34;5035859;28;20079;-63
2022/01/23 12:07:11;;;;;;;38.70;14.20;;;;;;;14.51;47.43;103361.84;5053806;28;20099;-63
2022/01/23 12:09:43;;;;;;;37.60;14.93;;;;;;;14.53;47.27;103359.94;5053641;28;20376;-63
2022/01/23 12:13:03;;;;;;;34.92;15.00;;;;;;;14.54;47.50;103348.16;5053866;28;20017;-63
2022/01/23 12:18:29;;;;;;;33.80;13.73;;;;;;;14.66;48.31;103361.84;5019661;28;20044;-63
2022/01/23 12:20:55;;;;;;;30.58;13.80;;;;;;;14.67;48.21;103355.50;5053873;28;20071;-63
2022/01/23 12:23:20;;;;;;;27.80;14.00;;;;;;;14.66;47.42;103343.84;5036211;28;20028;-63
2022/01/23 12:25:54;;;;;;;32.10;14.45;;;;;;;14.68;47.02;103346.47;5032298;28;20103;-63
2022/01/23 12:28:28;;;;;;;35.42;14.20;;;;;;;14.70;48.68;103339.13;5033400;28;20036;-63
2022/01/23 12:30:55;;;;;;;34.55;14.65;;;;;;;14.79;47.80;103354.78;5032510;28;20029;-63
2022/01/23 12:33:28;;;;;;;32.72;13.50;;;;;;;14.83;47.62;103350.91;5033446;28;20025;-63
2022/01/23 12:35:58;;;;;;;32.08;14.25;;;;;;;14.84;46.98;103347.25;5033494;28;20021;-63
2022/01/23 12:38:29;;;;;;;28.98;12.68;;;;;;;14.82;47.85;103343.78;5033616;28;20479;-63
2022/01/23 12:40:55;;;;;;;36.10;14.10;;;;;;;14.86;48.21;103346.19;5033288;28;20104;-63
2022/01/23 12:43:25;;;;;;;31.75;13.15;;;;;;;14.88;48.32;103344.25;5033824;28;20113;-63
2022/01/23 12:45:55;;;;;;;32.90;13.45;;;;;;;14.92;46.95;103347.66;5033592;28;20017;-63
2022/01/23 12:48:29;;;;;;;29.48;13.15;;;;;;;14.95;48.21;103336.66;5033339;28;20454;-63
2022/01/23 12:50:57;;;;;;;37.45;14.30;;;;;;;14.94;48.27;103326.81;5032056;28;20432;-63
2022/01/23 12:53:37;;;;;;;32.92;13.75;;;;;;;15.02;48.11;103319.97;5032113;28;20033;-65
2022/01/23 12:56:14;;;;;;;33.75;15.35;;;;;;;15.02;47.07;103308.31;5033593;28;20029;-63
2022/01/23 12:58:50;;;;;;;32.70;12.20;;;;;;;15.03;47.58;103307.34;5032528;28;20030;-63
2022/01/23 13:01:24;;;;;;;36.45;14.30;;;;;;;15.08;48.20;103316.00;5033174;28;20033;-63
2022/01/23 13:03:51;;;;;;;34.35;13.80;;;;;;;15.10;48.20;103312.25;5033281;28;20018;-63
2022/01/23 13:06:17;;;;;;;33.05;14.07;;;;;;;15.08;47.56;103308.78;5033486;28;20036;-63
2022/01/23 13:08:51;;;;;;;30.67;13.05;;;;;;;15.11;47.93;103313.13;5033138;28;20471;-63
2022/01/23 13:11:54;;;;;;;29.60;13.98;;;;;;;15.09;46.99;103315.06;5033256;28;20021;-64
2022/01/23 13:14:08;;;;;;;24.17;11.32;;;;;;;15.09;47.92;103306.97;5031072;28;20499;-63
2022/01/23 13:17:08;;;;;;;28.20;13.23;;;;;;;15.05;46.56;103292.78;5033451;28;20026;-63
2022/01/23 13:19:43;;;;;;;29.08;13.15;;;;;;;15.13;47.80;103305.81;5033245;28;20030;-63
2022/01/23 13:32:50;;;;;;;29.73;11.48;;;;;;;15.20;47.66;103290.94;5035335;28;20029;-63
2022/01/23 13:35:17;;;;;;;32.05;12.35;;;;;;;15.14;47.39;103285.94;5053257;28;20025;-63
2022/01/23 13:37:45;;;;;;;31.15;13.73;;;;;;;15.21;46.43;103300.78;5035585;28;20021;-62
2022/01/23 13:40:22;;;;;;;24.65;10.90;;;;;;;15.21;46.38;103295.38;5053774;28;20429;-63
2022/01/23 14:04:31;;;;;;;22.33;11.25;;;;;;;15.26;46.84;103282.47;5056099;28;20031;-64
2022/01/23 14:06:56;;;;;;;22.88;10.63;;;;;;;15.23;47.59;103273.69;5038238;28;20020;-62
2022/01/23 14:09:24;;;;;;;18.00;9.32;;;;;;;15.26;46.51;103274.34;5038586;28;20036;-63
2022/01/23 14:11:50;;;;;;;21.17;9.63;;;;;;;15.24;47.16;103276.28;5056239;28;20588;-63
2022/01/23 14:14:18;;;;;;;21.08;9.48;;;;;;;15.21;45.96;103271.09;5055900;28;20031;-63
2022/01/23 14:16:46;;;;;;;25.42;9.07;;;;;;;15.21;47.39;103276.50;5055986;28;20591;-63
2022/01/23 14:19:14;;;;;;;20.63;9.90;;;;;;;15.22;46.18;103278.19;5056017;28;20033;-63
2022/01/23 14:21:44;;;;;;;19.25;8.60;;;;;;;15.22;46.90;103271.94;5055743;28;20387;-63
2022/01/23 14:24:09;;;;;;;22.20;9.43;;;;;;;15.19;46.51;103281.09;5055836;28;20394;-63
2022/01/23 14:26:35;;;;;;;20.67;9.18;;;;;;;15.19;46.93;103283.81;5055705;28;20044;-63
2022/01/23 14:29:06;;;;;;;20.48;10.65;;;;;;;15.16;46.53;103278.59;5055845;28;20111;-62
2022/01/23 14:31:39;;;;;;;17.75;8.20;;;;;;;15.16;45.54;103278.59;5055734;28;20028;-63
2022/01/23 14:34:23;;;;;;;23.20;9.77;;;;;;;15.17;46.93;103280.34;5039208;28;20199;-62
2022/01/23 14:36:55;;;;;;;18.08;8.95;;;;;;;15.16;47.27;103284.88;5022469;28;20036;-62
2022/01/23 14:39:23;;;;;;;24.60;9.63;;;;;;;15.16;45.98;103294.78;5055629;28;20433;-63
2022/01/23 14:41:48;;;;;;;17.00;7.78;;;;;;;15.15;46.11;103293.94;5055539;28;20025;-63